createdAt,value
2018-02-20T00:00:16.882Z,4.34
2018-02-20T00:00:42.983Z,4.2
2018-02-20T00:01:09.078Z,4.28
2018-02-20T00:01:35.176Z,4.34
2018-02-20T00:02:01.296Z,4.34
2018-02-20T00:02:27.411Z,4.23
2018-02-20T00:02:53.507Z,4.34
2018-02-20T00:03:19.611Z,4.23
2018-02-20T00:03:45.711Z,4.24
2018-02-20T00:04:11.815Z,4.23
2018-02-20T00:04:37.909Z,4.32
2018-02-20T00:05:04.009Z,4.23
2018-02-20T00:05:30.111Z,4.32
2018-02-20T00:05:56.223Z,4.28
2018-02-20T00:06:22.324Z,4.28
2018-02-20T00:06:48.421Z,4.31
2018-02-20T00:07:14.522Z,4.2
2018-02-20T00:07:40.624Z,4.34
2018-02-20T00:08:06.721Z,4.24
2018-02-20T00:08:32.819Z,4.34
2018-02-20T00:08:58.920Z,4.28
2018-02-20T00:09:25.037Z,4.35
2018-02-20T00:09:51.135Z,4.34
2018-02-20T00:10:17.236Z,4.31
2018-02-20T00:10:43.336Z,4.34
2018-02-20T00:11:09.440Z,4.32
2018-02-20T00:11:35.538Z,4.3
2018-02-20T00:12:01.642Z,4.34
2018-02-20T00:12:27.730Z,4.45
2018-02-20T00:12:53.832Z,4.34
2018-02-20T00:13:19.943Z,4.41
2018-02-20T00:13:46.051Z,4.38
2018-02-20T00:14:12.166Z,4.32
2018-02-20T00:14:38.262Z,4.35
2018-02-20T00:15:04.376Z,4.22
2018-02-20T00:15:30.475Z,4.17
2018-02-20T00:15:56.580Z,4.16
2018-02-20T00:16:22.678Z,4.31
2018-02-20T00:16:48.782Z,4.28
2018-02-20T00:17:14.879Z,4.23
2018-02-20T00:17:40.981Z,4.34
2018-02-20T00:18:07.078Z,4.2
2018-02-20T00:18:33.173Z,4.2
2018-02-20T00:18:59.270Z,4.3
2018-02-20T00:19:25.387Z,4.19
2018-02-20T00:19:51.489Z,4.2
2018-02-20T00:20:17.586Z,4.16
2018-02-20T00:20:43.684Z,4.17
2018-02-20T00:21:09.783Z,4.06
2018-02-20T00:21:35.890Z,4.08
2018-02-20T00:22:02.003Z,3.98
2018-02-20T00:22:28.102Z,4.01
2018-02-20T00:22:54.204Z,3.94
2018-02-20T00:23:20.301Z,3.98
2018-02-20T00:23:46.401Z,4.02
2018-02-20T00:24:12.503Z,3.92
2018-02-20T00:24:38.603Z,3.91
2018-02-20T00:25:04.697Z,3.96
2018-02-20T00:25:30.800Z,3.87
2018-02-20T00:25:56.896Z,3.86
2018-02-20T00:26:23.023Z,3.83
2018-02-20T00:26:49.100Z,3.88
2018-02-20T00:27:15.198Z,3.87
2018-02-20T00:27:41.302Z,3.92
2018-02-20T00:28:07.397Z,3.99
2018-02-20T00:28:33.494Z,3.94
2018-02-20T00:28:59.598Z,3.98
2018-02-20T00:29:25.696Z,3.99
2018-02-20T00:29:51.802Z,3.95
2018-02-20T00:30:17.904Z,3.95
2018-02-20T00:30:43.997Z,3.99
2018-02-20T00:31:10.096Z,3.99
2018-02-20T00:31:36.216Z,4.01
2018-02-20T00:32:02.316Z,3.96
2018-02-20T00:32:28.409Z,3.94
2018-02-20T00:32:54.506Z,3.95
2018-02-20T00:33:20.609Z,3.87
2018-02-20T00:33:46.728Z,3.84
2018-02-20T00:34:12.825Z,3.86
2018-02-20T00:34:38.922Z,3.86
2018-02-20T00:35:05.030Z,3.76
2018-02-20T00:35:31.122Z,3.76
2018-02-20T00:35:57.227Z,3.77
2018-02-20T00:36:23.326Z,3.65
2018-02-20T00:36:49.429Z,3.6
2018-02-20T00:37:15.531Z,3.66
2018-02-20T00:37:41.626Z,3.65
2018-02-20T00:38:07.724Z,3.68
2018-02-20T00:38:33.824Z,3.74
2018-02-20T00:38:59.923Z,3.62
2018-02-20T00:39:26.024Z,3.63
2018-02-20T00:39:52.129Z,3.74
2018-02-20T00:40:18.223Z,3.7
2018-02-20T00:40:44.326Z,3.74
2018-02-20T00:41:10.424Z,3.78
2018-02-20T00:41:36.521Z,3.77
2018-02-20T00:42:02.631Z,3.77
2018-02-20T00:42:28.727Z,3.73
2018-02-20T00:42:54.830Z,3.78
2018-02-20T00:43:20.927Z,3.63
2018-02-20T00:43:47.029Z,3.8
2018-02-20T00:44:13.131Z,3.77
2018-02-20T00:44:39.226Z,3.74
2018-02-20T00:45:05.327Z,3.74
2018-02-20T00:45:31.433Z,3.78
2018-02-20T00:45:57.542Z,3.69
2018-02-20T00:46:23.637Z,3.65
2018-02-20T00:46:49.740Z,3.73
2018-02-20T00:47:15.850Z,3.63
2018-02-20T00:47:41.953Z,3.68
2018-02-20T00:48:08.069Z,3.6
2018-02-20T00:48:34.175Z,3.7
2018-02-20T00:49:00.271Z,3.69
2018-02-20T00:49:26.373Z,3.7
2018-02-20T00:49:52.478Z,3.65
2018-02-20T00:50:18.568Z,3.65
2018-02-20T00:50:44.673Z,3.63
2018-02-20T00:51:10.768Z,3.55
2018-02-20T00:51:36.870Z,3.69
2018-02-20T00:52:02.966Z,3.58
2018-02-20T00:52:29.079Z,3.55
2018-02-20T00:52:55.197Z,3.56
2018-02-20T00:53:21.286Z,3.41
2018-02-20T00:53:47.412Z,3.45
2018-02-20T00:54:13.510Z,3.41
2018-02-20T00:54:39.625Z,3.41
2018-02-20T00:55:05.720Z,3.44
2018-02-20T00:55:31.835Z,3.45
2018-02-20T00:55:57.945Z,3.37
2018-02-20T00:56:24.043Z,3.51
2018-02-20T00:56:50.148Z,3.53
2018-02-20T00:57:16.246Z,3.51
2018-02-20T00:57:42.343Z,3.59
2018-02-20T00:58:08.466Z,3.5
2018-02-20T00:58:34.564Z,3.58
2018-02-20T00:59:00.683Z,3.65
2018-02-20T00:59:26.783Z,3.66
2018-02-20T00:59:52.879Z,3.66
2018-02-20T01:00:19.000Z,3.65
2018-02-20T01:00:45.096Z,3.68
2018-02-20T01:01:11.198Z,3.68
2018-02-20T01:01:37.300Z,3.6
2018-02-20T01:02:03.401Z,3.65
2018-02-20T01:02:29.820Z,3.62
2018-02-20T01:02:55.915Z,3.69
2018-02-20T01:03:22.015Z,3.66
2018-02-20T01:03:48.107Z,3.69
2018-02-20T01:04:14.211Z,3.78
2018-02-20T01:04:40.308Z,3.7
2018-02-20T01:05:06.403Z,3.69
2018-02-20T01:05:32.506Z,3.76
2018-02-20T01:05:58.604Z,3.65
2018-02-20T01:06:24.711Z,3.69
2018-02-20T01:06:50.828Z,3.68
2018-02-20T01:07:16.925Z,3.63
2018-02-20T01:07:43.028Z,3.62
2018-02-20T01:08:09.123Z,3.63
2018-02-20T01:08:35.220Z,3.65
2018-02-20T01:09:01.322Z,3.63
2018-02-20T01:09:27.418Z,3.65
2018-02-20T01:09:53.529Z,3.69
2018-02-20T01:10:19.623Z,3.53
2018-02-20T01:10:45.719Z,3.56
2018-02-20T01:11:11.817Z,3.56
2018-02-20T01:11:37.918Z,3.53
2018-02-20T01:12:04.020Z,3.51
2018-02-20T01:12:30.115Z,3.53
2018-02-20T01:12:56.218Z,3.45
2018-02-20T01:13:22.316Z,3.48
2018-02-20T01:13:48.412Z,3.42
2018-02-20T01:14:14.514Z,3.47
2018-02-20T01:14:40.611Z,3.34
2018-02-20T01:15:06.713Z,3.37
2018-02-20T01:15:32.815Z,3.41
2018-02-20T01:15:58.931Z,3.32
2018-02-20T01:16:25.049Z,3.25
2018-02-20T01:16:51.150Z,3.29
2018-02-20T01:17:17.243Z,3.25
2018-02-20T01:17:43.348Z,3.23
2018-02-20T01:18:09.438Z,3.29
2018-02-20T01:18:35.539Z,3.25
2018-02-20T01:19:01.639Z,3.26
2018-02-20T01:19:27.737Z,3.26
2018-02-20T01:19:53.856Z,3.19
2018-02-20T01:20:19.954Z,3.22
2018-02-20T01:20:46.050Z,3.16
2018-02-20T01:21:12.172Z,3.05
2018-02-20T01:21:38.274Z,3.08
2018-02-20T01:22:04.369Z,3.08
2018-02-20T01:22:30.467Z,3.07
2018-02-20T01:22:56.566Z,3.1
2018-02-20T01:23:22.659Z,3.08
2018-02-20T01:23:48.763Z,3.1
2018-02-20T01:24:14.865Z,3.14
2018-02-20T01:24:40.960Z,3.01
2018-02-20T01:25:07.082Z,3.11
2018-02-20T01:25:33.177Z,3.16
2018-02-20T01:25:59.274Z,3.1
2018-02-20T01:26:25.376Z,3.18
2018-02-20T01:26:51.472Z,3.18
2018-02-20T01:27:17.576Z,3.1
2018-02-20T01:27:43.674Z,3.16
2018-02-20T01:28:09.767Z,3.21
2018-02-20T01:28:35.864Z,3.11
2018-02-20T01:29:01.983Z,3.19
2018-02-20T01:29:28.078Z,3.19
2018-02-20T01:29:54.181Z,3.23
2018-02-20T01:30:20.298Z,3.18
2018-02-20T01:30:46.393Z,3.21
2018-02-20T01:31:12.495Z,3.18
2018-02-20T01:31:38.594Z,3.1
2018-02-20T01:32:04.688Z,3.07
2018-02-20T01:32:30.796Z,3.03
2018-02-20T01:32:56.903Z,3.08
2018-02-20T01:33:23.007Z,3.04
2018-02-20T01:33:49.100Z,3.01
2018-02-20T01:34:15.202Z,3.05
2018-02-20T01:34:41.321Z,3
2018-02-20T01:35:07.413Z,2.98
2018-02-20T01:35:33.518Z,2.95
2018-02-20T01:35:59.613Z,2.95
2018-02-20T01:36:25.735Z,2.98
2018-02-20T01:36:51.832Z,2.87
2018-02-20T01:37:17.948Z,2.95
2018-02-20T01:37:44.050Z,2.97
2018-02-20T01:38:10.153Z,2.87
2018-02-20T01:38:36.249Z,2.98
2018-02-20T01:39:02.352Z,2.86
2018-02-20T01:39:28.446Z,2.86
2018-02-20T01:39:54.543Z,2.97
2018-02-20T01:40:20.650Z,2.98
2018-02-20T01:40:46.743Z,2.95
2018-02-20T01:41:12.841Z,2.86
2018-02-20T01:41:38.938Z,2.92
2018-02-20T01:42:05.034Z,2.86
2018-02-20T01:42:31.148Z,2.9
2018-02-20T01:42:57.249Z,2.83
2018-02-20T01:43:23.355Z,2.85
2018-02-20T01:43:49.452Z,2.89
2018-02-20T01:44:15.554Z,2.86
2018-02-20T01:44:41.655Z,2.9
2018-02-20T01:45:07.753Z,2.8
2018-02-20T01:45:33.857Z,2.87
2018-02-20T01:45:59.955Z,2.87
2018-02-20T01:46:26.072Z,2.89
2018-02-20T01:46:52.167Z,2.97
2018-02-20T01:47:18.270Z,2.97
2018-02-20T01:47:44.371Z,2.86
2018-02-20T01:48:10.468Z,2.87
2018-02-20T01:48:36.564Z,2.97
2018-02-20T01:49:02.661Z,2.87
2018-02-20T01:49:28.765Z,3
2018-02-20T01:49:54.860Z,2.83
2018-02-20T01:50:20.966Z,2.98
2018-02-20T01:50:47.058Z,2.85
2018-02-20T01:51:13.170Z,2.93
2018-02-20T01:51:39.254Z,3.04
2018-02-20T01:52:05.358Z,3.08
2018-02-20T01:52:31.456Z,3.11
2018-02-20T01:52:57.552Z,3.19
2018-02-20T01:53:23.652Z,3.13
2018-02-20T01:53:49.753Z,3.13
2018-02-20T01:54:15.847Z,3.14
2018-02-20T01:54:41.951Z,3.18
2018-02-20T01:55:08.044Z,3.23
2018-02-20T01:55:34.148Z,3.29
2018-02-20T01:56:00.246Z,3.23
2018-02-20T01:56:26.355Z,3.28
2018-02-20T01:56:52.458Z,3.28
2018-02-20T01:57:18.558Z,3.29
2018-02-20T01:57:44.656Z,3.26
2018-02-20T01:58:10.771Z,3.34
2018-02-20T01:58:36.853Z,3.31
2018-02-20T01:59:02.948Z,3.47
2018-02-20T01:59:29.076Z,3.36
2018-02-20T01:59:55.181Z,3.34
2018-02-20T02:00:21.284Z,3.37
2018-02-20T02:00:47.382Z,3.44
2018-02-20T02:01:13.481Z,3.44
2018-02-20T02:01:39.584Z,3.42
2018-02-20T02:02:05.677Z,3.44
2018-02-20T02:02:31.771Z,3.55
2018-02-20T02:02:57.872Z,3.5
2018-02-20T02:03:23.974Z,3.48
2018-02-20T02:03:50.075Z,3.48
2018-02-20T02:04:16.177Z,3.53
2018-02-20T02:04:42.273Z,3.51
2018-02-20T02:05:08.371Z,3.51
2018-02-20T02:05:34.469Z,3.56
2018-02-20T02:06:00.566Z,3.5
2018-02-20T02:06:26.666Z,3.59
2018-02-20T02:06:52.781Z,3.5
2018-02-20T02:07:18.873Z,3.51
2018-02-20T02:07:44.981Z,3.56
2018-02-20T02:08:11.081Z,3.55
2018-02-20T02:08:37.178Z,3.53
2018-02-20T02:09:03.282Z,3.51
2018-02-20T02:09:29.384Z,3.59
2018-02-20T02:09:55.479Z,3.5
2018-02-20T02:10:21.583Z,3.55
2018-02-20T02:10:47.679Z,3.56
2018-02-20T02:11:13.776Z,3.66
2018-02-20T02:11:39.877Z,3.66
2018-02-20T02:12:05.971Z,3.68
2018-02-20T02:12:32.088Z,3.55
2018-02-20T02:12:58.183Z,3.53
2018-02-20T02:13:24.301Z,3.55
2018-02-20T02:13:50.394Z,3.56
2018-02-20T02:14:16.493Z,3.53
2018-02-20T02:14:42.594Z,3.55
2018-02-20T02:15:08.694Z,3.53
2018-02-20T02:15:34.813Z,3.56
2018-02-20T02:16:00.924Z,3.66
2018-02-20T02:16:27.026Z,3.56
2018-02-20T02:16:53.121Z,3.51
2018-02-20T02:17:19.216Z,3.56
2018-02-20T02:17:45.320Z,3.56
2018-02-20T02:18:11.424Z,3.53
2018-02-20T02:18:37.551Z,3.5
2018-02-20T02:19:03.652Z,3.56
2018-02-20T02:19:29.749Z,3.55
2018-02-20T02:19:55.848Z,3.56
2018-02-20T02:20:21.946Z,3.59
2018-02-20T02:20:48.048Z,3.58
2018-02-20T02:21:14.143Z,3.6
2018-02-20T02:21:40.251Z,3.53
2018-02-20T02:22:06.358Z,3.56
2018-02-20T02:22:32.454Z,3.66
2018-02-20T02:22:58.557Z,3.68
2018-02-20T02:23:24.661Z,3.65
2018-02-20T02:23:50.756Z,3.65
2018-02-20T02:24:16.862Z,3.65
2018-02-20T02:24:42.956Z,3.68
2018-02-20T02:25:09.054Z,3.62
2018-02-20T02:25:35.154Z,3.6
2018-02-20T02:26:01.268Z,3.6
2018-02-20T02:26:27.381Z,3.66
2018-02-20T02:26:53.499Z,3.55
2018-02-20T02:27:19.597Z,3.68
2018-02-20T02:27:45.701Z,3.55
2018-02-20T02:28:11.804Z,3.5
2018-02-20T02:28:37.898Z,3.53
2018-02-20T02:29:04.004Z,3.5
2018-02-20T02:29:30.104Z,3.51
2018-02-20T02:29:56.200Z,3.5
2018-02-20T02:30:22.300Z,3.55
2018-02-20T02:30:48.409Z,3.51
2018-02-20T02:31:14.522Z,3.53
2018-02-20T02:31:40.618Z,3.63
2018-02-20T02:32:06.718Z,3.65
2018-02-20T02:32:32.822Z,3.69
2018-02-20T02:32:58.929Z,3.69
2018-02-20T02:33:25.028Z,3.56
2018-02-20T02:33:51.126Z,3.68
2018-02-20T02:34:17.239Z,3.65
2018-02-20T02:34:43.362Z,3.63
2018-02-20T02:35:09.464Z,3.65
2018-02-20T02:35:35.568Z,3.56
2018-02-20T02:36:01.653Z,3.5
2018-02-20T02:36:27.751Z,3.56
2018-02-20T02:36:53.854Z,3.53
2018-02-20T02:37:19.955Z,3.56
2018-02-20T02:37:46.046Z,3.65
2018-02-20T02:38:12.148Z,3.62
2018-02-20T02:38:38.242Z,3.63
2018-02-20T02:39:04.338Z,3.65
2018-02-20T02:39:30.445Z,3.55
2018-02-20T02:39:56.542Z,3.5
2018-02-20T02:40:22.636Z,3.56
2018-02-20T02:40:48.738Z,3.58
2018-02-20T02:41:14.834Z,3.68
2018-02-20T02:41:40.934Z,3.65
2018-02-20T02:42:07.038Z,3.55
2018-02-20T02:42:33.137Z,3.5
2018-02-20T02:42:59.236Z,3.41
2018-02-20T02:43:25.351Z,3.44
2018-02-20T02:43:51.456Z,3.42
2018-02-20T02:44:17.551Z,3.22
2018-02-20T02:44:43.652Z,3.23
2018-02-20T02:45:09.754Z,3.26
2018-02-20T02:45:35.855Z,3.28
2018-02-20T02:46:01.955Z,3.29
2018-02-20T02:46:28.057Z,3.29
2018-02-20T02:46:54.190Z,3.25
2018-02-20T02:47:20.299Z,3.26
2018-02-20T02:47:46.398Z,3.25
2018-02-20T02:48:12.519Z,3.18
2018-02-20T02:48:38.613Z,3.32
2018-02-20T02:49:04.717Z,3.29
2018-02-20T02:49:30.820Z,3.26
2018-02-20T02:49:56.913Z,3.34
2018-02-20T02:50:23.018Z,3.36
2018-02-20T02:50:49.133Z,3.29
2018-02-20T02:51:15.234Z,3.37
2018-02-20T02:51:41.329Z,3.23
2018-02-20T02:52:07.431Z,3.26
2018-02-20T02:52:33.528Z,3.22
2018-02-20T02:52:59.645Z,3.25
2018-02-20T02:53:25.745Z,3.25
2018-02-20T02:53:51.838Z,3.29
2018-02-20T02:54:17.939Z,3.23
2018-02-20T02:54:44.042Z,3.18
2018-02-20T02:55:10.138Z,3.18
2018-02-20T02:55:36.237Z,3.16
2018-02-20T02:56:02.368Z,3.13
2018-02-20T02:56:28.478Z,3.16
2018-02-20T02:56:54.560Z,3.11
2018-02-20T02:57:20.659Z,3.14
2018-02-20T02:57:46.775Z,3.18
2018-02-20T02:58:12.893Z,3.05
2018-02-20T02:58:39.001Z,3.07
2018-02-20T02:59:05.098Z,3.11
2018-02-20T02:59:31.192Z,3.1
2018-02-20T02:59:57.299Z,3.1
2018-02-20T03:00:23.397Z,3.16
2018-02-20T03:00:49.492Z,3.18
2018-02-20T03:01:15.589Z,3.19
2018-02-20T03:01:41.720Z,3.1
2018-02-20T03:02:07.812Z,3.04
2018-02-20T03:02:33.912Z,3.03
2018-02-20T03:03:00.004Z,3.05
2018-02-20T03:03:26.101Z,3.03
2018-02-20T03:03:52.206Z,3.07
2018-02-20T03:04:18.322Z,3.1
2018-02-20T03:04:44.432Z,3.1
2018-02-20T03:05:10.535Z,3.13
2018-02-20T03:05:36.632Z,3.13
2018-02-20T03:06:02.726Z,3.21
2018-02-20T03:06:28.843Z,3.16
2018-02-20T03:06:54.948Z,3.11
2018-02-20T03:07:21.048Z,3.22
2018-02-20T03:07:47.141Z,3.21
2018-02-20T03:08:13.243Z,3.26
2018-02-20T03:08:39.343Z,3.31
2018-02-20T03:09:05.439Z,3.23
2018-02-20T03:09:31.538Z,3.28
2018-02-20T03:09:57.641Z,3.29
2018-02-20T03:10:23.742Z,3.28
2018-02-20T03:10:49.836Z,3.22
2018-02-20T03:11:15.938Z,3.32
2018-02-20T03:11:42.032Z,3.37
2018-02-20T03:12:08.135Z,3.37
2018-02-20T03:12:34.230Z,3.37
2018-02-20T03:13:00.326Z,3.37
2018-02-20T03:13:26.429Z,3.32
2018-02-20T03:13:52.542Z,3.32
2018-02-20T03:14:18.642Z,3.28
2018-02-20T03:14:44.748Z,3.28
2018-02-20T03:15:10.843Z,3.28
2018-02-20T03:15:36.946Z,3.22
2018-02-20T03:16:03.040Z,3.32
2018-02-20T03:16:29.139Z,3.22
2018-02-20T03:16:55.241Z,3.25
2018-02-20T03:17:21.337Z,3.23
2018-02-20T03:17:47.440Z,3.32
2018-02-20T03:18:13.541Z,3.32
2018-02-20T03:18:39.636Z,3.34
2018-02-20T03:19:05.738Z,3.22
2018-02-20T03:19:31.835Z,3.26
2018-02-20T03:19:57.946Z,3.25
2018-02-20T03:20:24.067Z,3.25
2018-02-20T03:20:50.165Z,3.26
2018-02-20T03:21:16.269Z,3.23
2018-02-20T03:21:42.367Z,3.25
2018-02-20T03:22:08.464Z,3.26
2018-02-20T03:22:34.561Z,3.19
2018-02-20T03:23:00.661Z,3.16
2018-02-20T03:23:26.756Z,3.21
2018-02-20T03:23:52.858Z,3.25
2018-02-20T03:24:18.977Z,3.18
2018-02-20T03:24:45.090Z,3.23
2018-02-20T03:25:11.199Z,3.18
2018-02-20T03:25:37.298Z,3.26
2018-02-20T03:26:03.392Z,3.21
2018-02-20T03:26:29.488Z,3.16
2018-02-20T03:26:55.582Z,3.16
2018-02-20T03:27:21.684Z,3.11
2018-02-20T03:27:47.783Z,3.13
2018-02-20T03:28:13.882Z,3.05
2018-02-20T03:28:39.984Z,3.03
2018-02-20T03:29:06.081Z,2.93
2018-02-20T03:29:32.179Z,2.9
2018-02-20T03:29:58.277Z,2.92
2018-02-20T03:30:24.376Z,2.89
2018-02-20T03:30:50.481Z,2.92
2018-02-20T03:31:16.575Z,2.85
2018-02-20T03:31:42.693Z,2.98
2018-02-20T03:32:08.797Z,2.95
2018-02-20T03:32:34.889Z,2.83
2018-02-20T03:33:00.984Z,2.97
2018-02-20T03:33:27.086Z,2.93
2018-02-20T03:33:53.186Z,2.87
2018-02-20T03:34:19.283Z,2.93
2018-02-20T03:34:45.385Z,2.97
2018-02-20T03:35:11.501Z,2.85
2018-02-20T03:35:37.604Z,2.93
2018-02-20T03:36:03.703Z,3
2018-02-20T03:36:29.818Z,3.03
2018-02-20T03:36:55.912Z,3
2018-02-20T03:37:22.013Z,2.97
2018-02-20T03:37:48.114Z,3.04
2018-02-20T03:38:14.214Z,2.97
2018-02-20T03:38:40.313Z,2.92
2018-02-20T03:39:06.410Z,2.97
2018-02-20T03:39:32.527Z,2.93
2018-02-20T03:39:58.621Z,2.93
2018-02-20T03:40:24.722Z,2.86
2018-02-20T03:40:50.821Z,2.97
2018-02-20T03:41:16.911Z,2.97
2018-02-20T03:41:43.014Z,2.86
2018-02-20T03:42:09.104Z,2.9
2018-02-20T03:42:35.212Z,2.89
2018-02-20T03:43:01.306Z,2.93
2018-02-20T03:43:27.405Z,2.87
2018-02-20T03:43:53.510Z,2.86
2018-02-20T03:44:19.611Z,2.87
2018-02-20T03:44:45.708Z,2.86
2018-02-20T03:45:11.806Z,2.83
2018-02-20T03:45:37.916Z,2.8
2018-02-20T03:46:04.010Z,2.9
2018-02-20T03:46:30.109Z,2.87
2018-02-20T03:46:56.208Z,2.86
2018-02-20T03:47:22.303Z,2.89
2018-02-20T03:47:48.430Z,2.82
2018-02-20T03:48:14.518Z,2.89
2018-02-20T03:48:40.616Z,2.93
2018-02-20T03:49:06.718Z,2.97
2018-02-20T03:49:32.819Z,2.97
2018-02-20T03:49:58.916Z,2.92
2018-02-20T03:50:25.019Z,3.01
2018-02-20T03:50:51.119Z,3.04
2018-02-20T03:51:17.218Z,2.95
2018-02-20T03:51:43.320Z,2.86
2018-02-20T03:52:09.423Z,2.98
2018-02-20T03:52:35.519Z,2.9
2018-02-20T03:53:01.615Z,2.72
2018-02-20T03:53:27.734Z,2.75
2018-02-20T03:53:53.835Z,2.71
2018-02-20T03:54:19.932Z,2.77
2018-02-20T03:54:46.033Z,2.8
2018-02-20T03:55:12.133Z,2.8
2018-02-20T03:55:38.229Z,2.83
2018-02-20T03:56:04.325Z,2.86
2018-02-20T03:56:30.426Z,2.68
2018-02-20T03:56:56.544Z,2.72
2018-02-20T03:57:22.642Z,2.71
2018-02-20T03:57:48.746Z,2.62
2018-02-20T03:58:14.839Z,2.72
2018-02-20T03:58:40.940Z,2.71
2018-02-20T03:59:07.059Z,2.69
2018-02-20T03:59:33.162Z,2.6
2018-02-20T03:59:59.268Z,2.65
2018-02-20T04:00:25.363Z,2.62
2018-02-20T04:00:51.463Z,2.64
2018-02-20T04:01:17.571Z,2.68
2018-02-20T04:01:43.677Z,2.67
2018-02-20T04:02:09.787Z,2.65
2018-02-20T04:02:35.885Z,2.64
2018-02-20T04:03:01.991Z,2.68
2018-02-20T04:03:28.086Z,2.53
2018-02-20T04:03:54.184Z,2.61
2018-02-20T04:04:20.285Z,2.68
2018-02-20T04:04:46.385Z,2.64
2018-02-20T04:05:12.484Z,2.69
2018-02-20T04:05:38.584Z,2.53
2018-02-20T04:06:04.685Z,2.51
2018-02-20T04:06:30.796Z,2.42
2018-02-20T04:06:56.897Z,2.44
2018-02-20T04:07:22.999Z,2.43
2018-02-20T04:07:49.093Z,2.49
2018-02-20T04:08:15.198Z,2.5
2018-02-20T04:08:41.295Z,2.49
2018-02-20T04:09:07.400Z,2.51
2018-02-20T04:09:33.500Z,2.62
2018-02-20T04:09:59.592Z,2.56
2018-02-20T04:10:25.688Z,2.56
2018-02-20T04:10:51.790Z,2.54
2018-02-20T04:11:17.887Z,2.53
2018-02-20T04:11:43.985Z,2.53
2018-02-20T04:12:10.079Z,2.56
2018-02-20T04:12:36.183Z,2.54
2018-02-20T04:13:02.278Z,2.49
2018-02-20T04:13:28.381Z,2.44
2018-02-20T04:13:54.482Z,2.44
2018-02-20T04:14:20.579Z,2.49
2018-02-20T04:14:46.675Z,2.5
2018-02-20T04:15:12.780Z,2.49
2018-02-20T04:15:38.894Z,2.5
2018-02-20T04:16:05.001Z,2.51
2018-02-20T04:16:31.100Z,2.53
2018-02-20T04:16:57.194Z,2.62
2018-02-20T04:17:23.297Z,2.51
2018-02-20T04:17:49.391Z,2.57
2018-02-20T04:18:15.487Z,2.68
2018-02-20T04:18:41.590Z,2.54
2018-02-20T04:19:07.688Z,2.54
2018-02-20T04:19:33.793Z,2.6
2018-02-20T04:19:59.887Z,2.56
2018-02-20T04:20:25.994Z,2.54
2018-02-20T04:20:52.085Z,2.5
2018-02-20T04:21:18.195Z,2.61
2018-02-20T04:21:44.291Z,2.5
2018-02-20T04:22:10.384Z,2.5
2018-02-20T04:22:36.488Z,2.46
2018-02-20T04:23:02.584Z,2.43
2018-02-20T04:23:28.727Z,2.43
2018-02-20T04:23:54.784Z,2.36
2018-02-20T04:24:20.876Z,2.43
2018-02-20T04:24:46.979Z,2.49
2018-02-20T04:25:13.072Z,2.43
2018-02-20T04:25:39.184Z,2.43
2018-02-20T04:26:05.286Z,2.44
2018-02-20T04:26:31.388Z,2.44
2018-02-20T04:26:57.485Z,2.47
2018-02-20T04:27:23.589Z,2.51
2018-02-20T04:27:49.690Z,2.44
2018-02-20T04:28:15.780Z,2.44
2018-02-20T04:28:41.880Z,2.47
2018-02-20T04:29:07.976Z,2.43
2018-02-20T04:29:34.075Z,2.47
2018-02-20T04:30:00.182Z,2.47
2018-02-20T04:30:26.276Z,2.49
2018-02-20T04:30:52.373Z,2.49
2018-02-20T04:31:18.475Z,2.47
2018-02-20T04:31:44.572Z,2.38
2018-02-20T04:32:10.677Z,2.44
2018-02-20T04:32:36.776Z,2.44
2018-02-20T04:33:02.872Z,2.53
2018-02-20T04:33:28.968Z,2.5
2018-02-20T04:33:55.067Z,2.44
2018-02-20T04:34:21.164Z,2.49
2018-02-20T04:34:47.258Z,2.6
2018-02-20T04:35:13.364Z,2.51
2018-02-20T04:35:39.461Z,2.5
2018-02-20T04:36:05.564Z,2.49
2018-02-20T04:36:31.684Z,2.43
2018-02-20T04:36:57.797Z,2.39
2018-02-20T04:37:23.898Z,2.39
2018-02-20T04:37:50.011Z,2.39
2018-02-20T04:38:16.107Z,2.39
2018-02-20T04:38:42.210Z,2.43
2018-02-20T04:39:08.307Z,2.28
2018-02-20T04:39:34.410Z,2.39
2018-02-20T04:40:00.504Z,2.32
2018-02-20T04:40:26.604Z,2.39
2018-02-20T04:40:52.706Z,2.43
2018-02-20T04:41:18.801Z,2.36
2018-02-20T04:41:44.904Z,2.43
2018-02-20T04:42:11.001Z,2.42
2018-02-20T04:42:37.103Z,2.51
2018-02-20T04:43:03.197Z,2.53
2018-02-20T04:43:29.294Z,2.56
2018-02-20T04:43:55.397Z,2.53
2018-02-20T04:44:21.490Z,2.54
2018-02-20T04:44:47.594Z,2.67
2018-02-20T04:45:13.693Z,2.67
2018-02-20T04:45:39.787Z,2.62
2018-02-20T04:46:05.891Z,2.68
2018-02-20T04:46:31.984Z,2.74
2018-02-20T04:46:58.083Z,2.62
2018-02-20T04:47:24.188Z,2.68
2018-02-20T04:47:50.284Z,2.69
2018-02-20T04:48:16.378Z,2.72
2018-02-20T04:48:42.473Z,2.75
2018-02-20T04:49:08.580Z,2.77
2018-02-20T04:49:34.680Z,2.77
2018-02-20T04:50:00.781Z,2.83
2018-02-20T04:50:26.876Z,2.89
2018-02-20T04:50:52.983Z,2.85
2018-02-20T04:51:19.077Z,2.87
2018-02-20T04:51:45.184Z,2.9
2018-02-20T04:52:11.278Z,2.89
2018-02-20T04:52:37.378Z,2.93
2018-02-20T04:53:03.478Z,2.89
2018-02-20T04:53:29.575Z,2.83
2018-02-20T04:53:55.675Z,2.87
2018-02-20T04:54:21.815Z,2.87
2018-02-20T04:54:47.871Z,2.89
2018-02-20T04:55:13.978Z,2.89
2018-02-20T04:55:40.070Z,2.92
2018-02-20T04:56:06.176Z,2.86
2018-02-20T04:56:32.274Z,2.95
2018-02-20T04:56:58.370Z,3
2018-02-20T04:57:24.475Z,3.04
2018-02-20T04:57:50.569Z,3.01
2018-02-20T04:58:16.668Z,3.07
2018-02-20T04:58:42.771Z,3.03
2018-02-20T04:59:08.869Z,3.1
2018-02-20T04:59:34.962Z,3.08
2018-02-20T05:00:01.072Z,3.03
2018-02-20T05:00:27.161Z,2.98
2018-02-20T05:00:53.278Z,3.1
2018-02-20T05:01:19.381Z,3.08
2018-02-20T05:01:45.485Z,3.04
2018-02-20T05:02:11.575Z,3.08
2018-02-20T05:02:37.678Z,3.05
2018-02-20T05:03:03.776Z,3.08
2018-02-20T05:03:29.870Z,3.04
2018-02-20T05:03:55.973Z,2.93
2018-02-20T05:04:22.068Z,2.95
2018-02-20T05:04:48.171Z,2.98
2018-02-20T05:05:14.266Z,2.93
2018-02-20T05:05:40.368Z,2.92
2018-02-20T05:06:06.487Z,2.95
2018-02-20T05:06:32.581Z,2.97
2018-02-20T05:06:58.676Z,2.95
2018-02-20T05:07:24.779Z,2.95
2018-02-20T05:07:50.880Z,2.86
2018-02-20T05:08:16.976Z,2.9
2018-02-20T05:08:43.083Z,2.89
2018-02-20T05:09:09.180Z,2.97
2018-02-20T05:09:35.273Z,2.83
2018-02-20T05:10:01.376Z,2.9
2018-02-20T05:10:27.469Z,2.95
2018-02-20T05:10:53.570Z,2.93
2018-02-20T05:11:19.674Z,2.85
2018-02-20T05:11:45.784Z,2.85
2018-02-20T05:12:11.882Z,2.97
2018-02-20T05:12:37.982Z,2.95
2018-02-20T05:13:04.085Z,3.03
2018-02-20T05:13:30.177Z,3
2018-02-20T05:13:56.272Z,2.97
2018-02-20T05:14:22.395Z,2.98
2018-02-20T05:14:48.494Z,2.98
2018-02-20T05:15:14.595Z,2.97
2018-02-20T05:15:40.690Z,3.01
2018-02-20T05:16:06.789Z,3.01
2018-02-20T05:16:32.893Z,2.93
2018-02-20T05:16:58.988Z,2.97
2018-02-20T05:17:25.090Z,2.87
2018-02-20T05:17:51.191Z,2.85
2018-02-20T05:18:17.282Z,2.83
2018-02-20T05:18:43.385Z,2.82
2018-02-20T05:19:09.479Z,2.74
2018-02-20T05:19:35.592Z,2.85
2018-02-20T05:20:01.690Z,2.87
2018-02-20T05:20:27.789Z,2.77
2018-02-20T05:20:53.887Z,2.89
2018-02-20T05:21:19.991Z,2.87
2018-02-20T05:21:46.091Z,2.89
2018-02-20T05:22:12.202Z,2.87
2018-02-20T05:22:38.289Z,2.85
2018-02-20T05:23:04.386Z,2.72
2018-02-20T05:23:30.483Z,2.74
2018-02-20T05:23:56.584Z,2.87
2018-02-20T05:24:22.678Z,2.82
2018-02-20T05:24:48.802Z,2.87
2018-02-20T05:25:14.901Z,2.89
2018-02-20T05:25:41.009Z,2.86
2018-02-20T05:26:07.115Z,2.86
2018-02-20T05:26:33.209Z,2.85
2018-02-20T05:26:59.312Z,2.87
2018-02-20T05:27:25.426Z,2.77
2018-02-20T05:27:51.524Z,2.72
2018-02-20T05:28:17.629Z,2.79
2018-02-20T05:28:43.723Z,2.74
2018-02-20T05:29:09.825Z,2.77
2018-02-20T05:29:35.920Z,2.69
2018-02-20T05:30:02.022Z,2.74
2018-02-20T05:30:28.125Z,2.65
2018-02-20T05:30:54.221Z,2.74
2018-02-20T05:31:20.323Z,2.71
2018-02-20T05:31:46.420Z,2.75
2018-02-20T05:32:12.518Z,2.8
2018-02-20T05:32:38.617Z,2.71
2018-02-20T05:33:04.716Z,2.74
2018-02-20T05:33:30.825Z,2.69
2018-02-20T05:33:56.926Z,2.79
2018-02-20T05:34:23.024Z,2.79
2018-02-20T05:34:49.124Z,2.72
2018-02-20T05:35:15.228Z,2.74
2018-02-20T05:35:41.350Z,2.68
2018-02-20T05:36:07.445Z,2.64
2018-02-20T05:36:33.549Z,2.72
2018-02-20T05:36:59.645Z,2.68
2018-02-20T05:37:25.744Z,2.71
2018-02-20T05:37:51.844Z,2.71
2018-02-20T05:38:17.959Z,2.72
2018-02-20T05:38:44.058Z,2.69
2018-02-20T05:39:10.154Z,2.77
2018-02-20T05:39:36.275Z,2.72
2018-02-20T05:40:02.355Z,2.64
2018-02-20T05:40:28.455Z,2.69
2018-02-20T05:40:54.555Z,2.69
2018-02-20T05:41:20.661Z,2.67
2018-02-20T05:41:46.756Z,2.68
2018-02-20T05:42:12.856Z,2.62
2018-02-20T05:42:38.951Z,2.69
2018-02-20T05:43:05.057Z,2.75
2018-02-20T05:43:31.156Z,2.77
2018-02-20T05:43:57.251Z,2.69
2018-02-20T05:44:23.351Z,2.64
2018-02-20T05:44:49.451Z,2.68
2018-02-20T05:45:15.546Z,2.68
2018-02-20T05:45:41.648Z,2.71
2018-02-20T05:46:07.762Z,2.69
2018-02-20T05:46:33.862Z,2.72
2018-02-20T05:46:59.955Z,2.72
2018-02-20T05:47:26.059Z,2.65
2018-02-20T05:47:52.152Z,2.72
2018-02-20T05:48:18.257Z,2.68
2018-02-20T05:48:44.357Z,2.68